createdAt,value
2017-06-13T00:00:03.507Z,809.3
2017-06-13T00:00:07.808Z,809.34
2017-06-13T00:00:12.259Z,809.34
2017-06-13T00:00:16.569Z,809.34
2017-06-13T00:00:20.872Z,809.37
2017-06-13T00:00:25.180Z,809.35
2017-06-13T00:00:29.606Z,809.33
2017-06-13T00:00:33.919Z,809.33
2017-06-13T00:00:38.345Z,809.33
2017-06-13T00:00:42.765Z,809.37
2017-06-13T00:00:47.187Z,809.34
2017-06-13T00:00:51.372Z,809.37
2017-06-13T00:00:55.794Z,809.33
2017-06-13T00:01:00.257Z,809.37
2017-06-13T00:01:04.678Z,809.38
2017-06-13T00:01:09.098Z,809.34
2017-06-13T00:01:13.520Z,809.38
2017-06-13T00:01:17.711Z,809.4
2017-06-13T00:01:22.140Z,809.4
2017-06-13T00:01:26.558Z,809.37
2017-06-13T00:01:30.977Z,809.39
2017-06-13T00:01:35.400Z,809.42
2017-06-13T00:01:39.722Z,809.36
2017-06-13T00:01:44.150Z,809.38
2017-06-13T00:01:48.577Z,809.41
2017-06-13T00:01:52.896Z,809.4
2017-06-13T00:01:57.204Z,809.43
2017-06-13T00:02:01.875Z,809.38
2017-06-13T00:02:06.304Z,809.38
2017-06-13T00:02:10.731Z,809.41
2017-06-13T00:02:15.151Z,809.42
2017-06-13T00:02:19.454Z,809.4
2017-06-13T00:02:23.883Z,809.42
2017-06-13T00:02:28.307Z,809.43
2017-06-13T00:02:32.736Z,809.43
2017-06-13T00:02:37.040Z,809.42
2017-06-13T00:02:41.464Z,809.39
2017-06-13T00:02:45.884Z,809.42
2017-06-13T00:02:50.305Z,809.39
2017-06-13T00:02:54.616Z,809.4
2017-06-13T00:02:58.951Z,809.43
2017-06-13T00:03:03.422Z,809.4
2017-06-13T00:03:07.849Z,809.44
2017-06-13T00:03:12.030Z,809.4
2017-06-13T00:03:16.455Z,809.42
2017-06-13T00:03:20.774Z,809.36
2017-06-13T00:03:25.077Z,809.4
2017-06-13T00:03:29.502Z,809.38
2017-06-13T00:03:33.920Z,809.4
2017-06-13T00:03:38.229Z,809.39
2017-06-13T00:03:42.534Z,809.33
2017-06-13T00:03:46.957Z,809.38
2017-06-13T00:03:51.383Z,809.37
2017-06-13T00:03:55.686Z,809.41
2017-06-13T00:04:00.104Z,809.34
2017-06-13T00:04:04.526Z,809.38
2017-06-13T00:04:08.835Z,809.39
2017-06-13T00:04:13.139Z,809.38
2017-06-13T00:04:17.555Z,809.38
2017-06-13T00:04:21.978Z,809.36
2017-06-13T00:04:26.399Z,809.32
2017-06-13T00:04:30.832Z,809.3
2017-06-13T00:04:35.283Z,809.37
2017-06-13T00:04:39.469Z,809.34
2017-06-13T00:04:43.897Z,809.37
2017-06-13T00:04:48.321Z,809.35
2017-06-13T00:04:52.741Z,809.32
2017-06-13T00:04:56.930Z,809.29
2017-06-13T00:05:01.121Z,809.31
2017-06-13T00:05:05.308Z,809.31
2017-06-13T00:05:09.733Z,809.32
2017-06-13T00:05:14.155Z,809.31
2017-06-13T00:05:18.576Z,809.3
2017-06-13T00:05:23.015Z,809.25
2017-06-13T00:05:27.435Z,809.31
2017-06-13T00:05:31.860Z,809.3
2017-06-13T00:05:36.163Z,809.28
2017-06-13T00:05:40.585Z,809.29
2017-06-13T00:05:45.019Z,809.28
2017-06-13T00:05:49.208Z,809.27
2017-06-13T00:05:53.633Z,809.23
2017-06-13T00:05:57.818Z,809.24
2017-06-13T00:06:02.243Z,809.27
2017-06-13T00:06:06.662Z,809.24
2017-06-13T00:06:10.735Z,809.25
2017-06-13T00:06:15.161Z,809.22
2017-06-13T00:06:19.468Z,809.21
2017-06-13T00:06:23.893Z,809.22
2017-06-13T00:06:28.194Z,809.22
2017-06-13T00:06:32.504Z,809.22
2017-06-13T00:06:36.952Z,809.14
2017-06-13T00:06:41.259Z,809.13
2017-06-13T00:06:45.685Z,809.19
2017-06-13T00:06:49.991Z,809.14
2017-06-13T00:06:54.422Z,809.17
2017-06-13T00:06:58.743Z,809.11
2017-06-13T00:07:03.247Z,809.16
2017-06-13T00:07:07.559Z,809.13
2017-06-13T00:07:11.870Z,809.14
2017-06-13T00:07:16.179Z,809.11
2017-06-13T00:07:20.497Z,809.1
2017-06-13T00:07:24.929Z,809.1
2017-06-13T00:07:29.355Z,809.06
2017-06-13T00:07:33.662Z,809.04
2017-06-13T00:07:38.085Z,809.05
2017-06-13T00:07:42.390Z,809.02
2017-06-13T00:07:46.831Z,809.04
2017-06-13T00:07:51.135Z,809.08
2017-06-13T00:07:55.551Z,809.05
2017-06-13T00:07:59.862Z,809.03
2017-06-13T00:08:04.464Z,809
2017-06-13T00:08:08.777Z,809.03
2017-06-13T00:08:13.108Z,809.01
2017-06-13T00:08:17.412Z,809
2017-06-13T00:08:21.719Z,809.01
2017-06-13T00:08:25.905Z,808.98
2017-06-13T00:08:30.207Z,808.99
2017-06-13T00:08:34.396Z,808.95
2017-06-13T00:08:38.821Z,808.94
2017-06-13T00:08:43.134Z,808.9
2017-06-13T00:08:47.555Z,808.94
2017-06-13T00:08:51.859Z,808.97
2017-06-13T00:08:56.284Z,808.92
2017-06-13T00:09:00.606Z,808.91
2017-06-13T00:09:05.335Z,808.9
2017-06-13T00:09:09.757Z,808.87
2017-06-13T00:09:14.060Z,808.89
2017-06-13T00:09:18.483Z,808.91
2017-06-13T00:09:22.910Z,808.88
2017-06-13T00:09:27.223Z,808.89
2017-06-13T00:09:31.527Z,808.88
2017-06-13T00:09:35.946Z,808.86
2017-06-13T00:09:40.367Z,808.85
2017-06-13T00:09:44.679Z,808.81
2017-06-13T00:09:49.102Z,808.78
2017-06-13T00:09:53.526Z,808.83
2017-06-13T00:09:57.948Z,808.83
2017-06-13T00:10:02.135Z,808.82
2017-06-13T00:10:06.438Z,808.79
2017-06-13T00:10:10.749Z,808.8
2017-06-13T00:10:15.058Z,808.78
2017-06-13T00:10:19.366Z,808.81
2017-06-13T00:10:23.792Z,808.75
2017-06-13T00:10:27.987Z,808.75
2017-06-13T00:10:32.413Z,808.72
2017-06-13T00:10:36.837Z,808.74
2017-06-13T00:10:41.264Z,808.74
2017-06-13T00:10:45.684Z,808.74
2017-06-13T00:10:50.106Z,808.73
2017-06-13T00:10:54.528Z,808.72
2017-06-13T00:10:58.984Z,808.74
2017-06-13T00:11:03.275Z,808.7
2017-06-13T00:11:07.694Z,808.66
2017-06-13T00:11:12.114Z,808.69
2017-06-13T00:11:16.421Z,808.69
2017-06-13T00:11:20.851Z,808.64
2017-06-13T00:11:25.169Z,808.64
2017-06-13T00:11:29.587Z,808.65
2017-06-13T00:11:33.890Z,808.63
2017-06-13T00:11:38.194Z,808.59
2017-06-13T00:11:42.503Z,808.64
2017-06-13T00:11:46.932Z,808.62
2017-06-13T00:11:51.352Z,808.6
2017-06-13T00:11:55.655Z,808.61
2017-06-13T00:12:00.073Z,808.61
2017-06-13T00:12:04.257Z,808.58
2017-06-13T00:12:08.561Z,808.6
2017-06-13T00:12:12.991Z,808.57
2017-06-13T00:12:17.406Z,808.55
2017-06-13T00:12:21.714Z,808.51
2017-06-13T00:12:26.020Z,808.52
2017-06-13T00:12:30.448Z,808.5
2017-06-13T00:12:34.874Z,808.52
2017-06-13T00:12:39.322Z,808.54
2017-06-13T00:12:43.745Z,808.55
2017-06-13T00:12:48.166Z,808.5
2017-06-13T00:12:52.589Z,808.5
2017-06-13T00:12:56.786Z,808.53
2017-06-13T00:13:00.984Z,808.49
2017-06-13T00:13:05.286Z,808.49
2017-06-13T00:13:09.709Z,808.49
2017-06-13T00:13:14.013Z,808.52
2017-06-13T00:13:18.435Z,808.47
2017-06-13T00:13:22.745Z,808.45
2017-06-13T00:13:27.167Z,808.45
2017-06-13T00:13:31.595Z,808.44
2017-06-13T00:13:36.024Z,808.44
2017-06-13T00:13:40.208Z,808.42
2017-06-13T00:13:44.635Z,808.43
2017-06-13T00:13:49.110Z,808.37
2017-06-13T00:13:53.533Z,808.39
2017-06-13T00:13:57.717Z,808.39
2017-06-13T00:14:02.137Z,808.37
2017-06-13T00:14:06.331Z,808.4
2017-06-13T00:14:10.648Z,808.38
2017-06-13T00:14:15.067Z,808.37
2017-06-13T00:14:19.255Z,808.35
2017-06-13T00:14:23.677Z,808.36
2017-06-13T00:14:28.108Z,808.38
2017-06-13T00:14:32.562Z,808.38
2017-06-13T00:14:36.994Z,808.36
2017-06-13T00:14:41.296Z,808.34
2017-06-13T00:14:45.719Z,808.35
2017-06-13T00:14:50.138Z,808.33
2017-06-13T00:14:54.559Z,808.33
2017-06-13T00:14:58.872Z,808.3
2017-06-13T00:15:03.344Z,808.29
2017-06-13T00:15:07.654Z,808.32
2017-06-13T00:15:12.075Z,808.31
2017-06-13T00:15:16.506Z,808.3
2017-06-13T00:15:20.816Z,808.3
2017-06-13T00:15:25.240Z,808.3
2017-06-13T00:15:29.662Z,808.28
2017-06-13T00:15:34.086Z,808.23
2017-06-13T00:15:38.502Z,808.25
2017-06-13T00:15:42.812Z,808.22
2017-06-13T00:15:47.125Z,808.31
2017-06-13T00:15:51.551Z,808.25
2017-06-13T00:15:55.973Z,808.24
2017-06-13T00:16:00.396Z,808.23
2017-06-13T00:16:05.001Z,808.26
2017-06-13T00:16:09.323Z,808.24
2017-06-13T00:16:13.778Z,808.24
2017-06-13T00:16:18.082Z,808.25
2017-06-13T00:16:22.382Z,808.2
2017-06-13T00:16:26.807Z,808.24
2017-06-13T00:16:31.234Z,808.23
2017-06-13T00:16:35.545Z,808.21
2017-06-13T00:16:39.849Z,808.2
2017-06-13T00:16:44.154Z,808.17
2017-06-13T00:16:48.575Z,808.18
2017-06-13T00:16:52.998Z,808.18
2017-06-13T00:16:57.427Z,808.15
2017-06-13T00:17:02.211Z,808.23
2017-06-13T00:17:06.402Z,808.17
2017-06-13T00:17:10.710Z,808.16
2017-06-13T00:17:15.133Z,808.19
2017-06-13T00:17:19.444Z,808.19
2017-06-13T00:17:23.900Z,808.14
2017-06-13T00:17:28.332Z,808.15
2017-06-13T00:17:32.752Z,808.15
2017-06-13T00:17:37.054Z,808.12
2017-06-13T00:17:41.477Z,808.15
2017-06-13T00:17:45.787Z,808.09
2017-06-13T00:17:50.087Z,808.09
2017-06-13T00:17:54.514Z,808.14
2017-06-13T00:17:58.932Z,808.13
2017-06-13T00:18:03.358Z,808.11
2017-06-13T00:18:07.546Z,808.12
2017-06-13T00:18:11.860Z,808.12
2017-06-13T00:18:16.277Z,808.11
2017-06-13T00:18:20.473Z,808.09
2017-06-13T00:18:24.892Z,808.11
2017-06-13T00:18:29.203Z,808.09
2017-06-13T00:18:33.653Z,808.1
2017-06-13T00:18:38.077Z,808.09
2017-06-13T00:18:42.264Z,808.07
2017-06-13T00:18:46.681Z,808.1
2017-06-13T00:18:51.102Z,808.07
2017-06-13T00:18:55.533Z,808.08
2017-06-13T00:18:59.971Z,808.07
2017-06-13T00:19:04.578Z,808.02
2017-06-13T00:19:08.881Z,808.08
2017-06-13T00:19:13.301Z,808.05
2017-06-13T00:19:17.730Z,808.02
2017-06-13T00:19:22.182Z,808.05
2017-06-13T00:19:26.604Z,808.06
2017-06-13T00:19:31.026Z,808.04
2017-06-13T00:19:35.454Z,808.08
2017-06-13T00:19:39.881Z,808.03
2017-06-13T00:19:44.190Z,808.04
2017-06-13T00:19:48.621Z,808.03
2017-06-13T00:19:53.041Z,808.05
2017-06-13T00:19:57.466Z,808.04
2017-06-13T00:20:01.893Z,808.03
2017-06-13T00:20:06.196Z,808.04
2017-06-13T00:20:10.272Z,808.02
2017-06-13T00:20:14.698Z,808.03
2017-06-13T00:20:19.012Z,808.04
2017-06-13T00:20:23.438Z,808.04
2017-06-13T00:20:27.858Z,808.04
2017-06-13T00:20:32.284Z,808.03
2017-06-13T00:20:36.710Z,808.02
2017-06-13T00:20:41.138Z,808.04
2017-06-13T00:20:45.449Z,808
2017-06-13T00:20:49.870Z,808.05
2017-06-13T00:20:54.170Z,808.05
2017-06-13T00:20:58.606Z,808.02
2017-06-13T00:21:03.336Z,808
2017-06-13T00:21:07.636Z,808.04
2017-06-13T00:21:11.940Z,808.02
2017-06-13T00:21:16.365Z,808.02
2017-06-13T00:21:20.558Z,808.01
2017-06-13T00:21:24.748Z,808.01
2017-06-13T00:21:29.052Z,808.01
2017-06-13T00:21:33.471Z,808.01
2017-06-13T00:21:37.894Z,808.02
2017-06-13T00:21:42.326Z,808.02
2017-06-13T00:21:46.751Z,808
2017-06-13T00:21:51.176Z,808.02
2017-06-13T00:21:55.598Z,808.02
2017-06-13T00:22:00.027Z,808.01
2017-06-13T00:22:04.446Z,808
2017-06-13T00:22:08.776Z,808.04
2017-06-13T00:22:13.099Z,808.01
2017-06-13T00:22:17.522Z,808.02
2017-06-13T00:22:21.832Z,808.05
2017-06-13T00:22:26.034Z,808.04
2017-06-13T00:22:30.458Z,808.03
2017-06-13T00:22:34.800Z,808.03
2017-06-13T00:22:39.221Z,808.04
2017-06-13T00:22:43.405Z,808.04
2017-06-13T00:22:47.828Z,808.05
2017-06-13T00:22:52.255Z,808.07
2017-06-13T00:22:56.570Z,808.04
2017-06-13T00:23:00.991Z,808.04
2017-06-13T00:23:05.613Z,808.04
2017-06-13T00:23:10.028Z,808.04
2017-06-13T00:23:14.337Z,808.07
2017-06-13T00:23:18.646Z,808.06
2017-06-13T00:23:23.070Z,808.07
2017-06-13T00:23:27.499Z,808.11
2017-06-13T00:23:31.923Z,808.06
2017-06-13T00:23:36.234Z,808.05
2017-06-13T00:23:40.671Z,808.08
2017-06-13T00:23:45.090Z,808.06
2017-06-13T00:23:49.520Z,808.06
2017-06-13T00:23:53.942Z,808.05
2017-06-13T00:23:58.365Z,808.08
2017-06-13T00:24:02.677Z,808.07
2017-06-13T00:24:07.018Z,808.11
2017-06-13T00:24:11.198Z,808.1
2017-06-13T00:24:15.502Z,808.04
2017-06-13T00:24:19.922Z,808.09
2017-06-13T00:24:24.226Z,808.12
2017-06-13T00:24:28.535Z,808.12
2017-06-13T00:24:32.953Z,808.13
2017-06-13T00:24:37.254Z,808.14
2017-06-13T00:24:41.675Z,808.11
2017-06-13T00:24:46.098Z,808.13
2017-06-13T00:24:50.412Z,808.12
2017-06-13T00:24:54.833Z,808.14
2017-06-13T00:24:59.263Z,808.17
2017-06-13T00:25:03.689Z,808.16
2017-06-13T00:25:07.991Z,808.17
2017-06-13T00:25:12.419Z,808.17
2017-06-13T00:25:16.631Z,808.15
2017-06-13T00:25:20.938Z,808.18
2017-06-13T00:25:25.245Z,808.19
2017-06-13T00:25:29.431Z,808.2
2017-06-13T00:25:33.870Z,808.19
2017-06-13T00:25:38.305Z,808.2
2017-06-13T00:25:42.728Z,808.22
2017-06-13T00:25:47.150Z,808.19
2017-06-13T00:25:51.458Z,808.16
2017-06-13T00:25:55.885Z,808.18
2017-06-13T00:26:00.193Z,808.19
2017-06-13T00:26:04.619Z,808.2
2017-06-13T00:26:08.921Z,808.21
2017-06-13T00:26:13.338Z,808.21
2017-06-13T00:26:17.530Z,808.22
2017-06-13T00:26:21.958Z,808.24
2017-06-13T00:26:26.383Z,808.22
2017-06-13T00:26:30.805Z,808.22
2017-06-13T00:26:35.231Z,808.22
2017-06-13T00:26:39.654Z,808.21
2017-06-13T00:26:44.080Z,808.24
2017-06-13T00:26:48.385Z,808.22
2017-06-13T00:26:52.694Z,808.26
2017-06-13T00:26:56.994Z,808.25
2017-06-13T00:27:01.720Z,808.25
2017-06-13T00:27:06.025Z,808.26
2017-06-13T00:27:10.457Z,808.24
2017-06-13T00:27:14.919Z,808.26
2017-06-13T00:27:19.223Z,808.27
2017-06-13T00:27:23.643Z,808.26
2017-06-13T00:27:28.069Z,808.23
2017-06-13T00:27:32.502Z,808.27
2017-06-13T00:27:36.962Z,808.28
2017-06-13T00:27:41.380Z,808.22
2017-06-13T00:27:45.805Z,808.28
2017-06-13T00:27:50.230Z,808.3
2017-06-13T00:27:54.535Z,808.24
2017-06-13T00:27:58.965Z,808.27
2017-06-13T00:28:03.266Z,808.3
2017-06-13T00:28:07.568Z,808.28
2017-06-13T00:28:11.989Z,808.32
2017-06-13T00:28:16.296Z,808.31
2017-06-13T00:28:20.723Z,808.3
2017-06-13T00:28:25.198Z,808.3
2017-06-13T00:28:29.504Z,808.33
2017-06-13T00:28:33.930Z,808.28
2017-06-13T00:28:38.349Z,808.33
2017-06-13T00:28:42.534Z,808.29
2017-06-13T00:28:46.959Z,808.3
2017-06-13T00:28:51.272Z,808.31
2017-06-13T00:28:55.574Z,808.37
2017-06-13T00:28:59.877Z,808.33
2017-06-13T00:29:04.301Z,808.3
2017-06-13T00:29:08.734Z,808.33
2017-06-13T00:29:13.159Z,808.3
2017-06-13T00:29:17.344Z,808.31
2017-06-13T00:29:21.766Z,808.34
2017-06-13T00:29:26.185Z,808.34
2017-06-13T00:29:30.606Z,808.32
2017-06-13T00:29:35.028Z,808.32
2017-06-13T00:29:39.452Z,808.35
2017-06-13T00:29:43.754Z,808.34
2017-06-13T00:29:48.179Z,808.32
2017-06-13T00:29:52.484Z,808.34
2017-06-13T00:29:56.920Z,808.27
2017-06-13T00:30:01.111Z,808.36
2017-06-13T00:30:05.416Z,808.37
2017-06-13T00:30:09.842Z,808.34
2017-06-13T00:30:14.265Z,808.34
2017-06-13T00:30:18.698Z,808.33
2017-06-13T00:30:23.114Z,808.31
2017-06-13T00:30:27.554Z,808.36
2017-06-13T00:30:31.862Z,808.4
2017-06-13T00:30:36.285Z,808.33
2017-06-13T00:30:40.589Z,808.36
2017-06-13T00:30:45.018Z,808.37
2017-06-13T00:30:49.444Z,808.35
2017-06-13T00:30:53.865Z,808.36
2017-06-13T00:30:58.289Z,808.32
2017-06-13T00:31:02.711Z,808.34
2017-06-13T00:31:07.140Z,808.35
2017-06-13T00:31:11.577Z,808.36
2017-06-13T00:31:15.994Z,808.33
2017-06-13T00:31:20.065Z,808.3
2017-06-13T00:31:24.483Z,808.33
2017-06-13T00:31:28.925Z,808.36
2017-06-13T00:31:33.350Z,808.33
2017-06-13T00:31:37.766Z,808.36
2017-06-13T00:31:42.066Z,808.37
2017-06-13T00:31:46.489Z,808.37
2017-06-13T00:31:50.914Z,808.33
2017-06-13T00:31:55.341Z,808.33
2017-06-13T00:31:59.648Z,808.37
2017-06-13T00:32:03.956Z,808.35
2017-06-13T00:32:08.381Z,808.37
2017-06-13T00:32:12.681Z,808.38
2017-06-13T00:32:17.115Z,808.35
2017-06-13T00:32:21.419Z,808.34
2017-06-13T00:32:25.729Z,808.38
2017-06-13T00:32:30.147Z,808.35
2017-06-13T00:32:34.574Z,808.34
2017-06-13T00:32:38.879Z,808.35
2017-06-13T00:32:43.308Z,808.37
2017-06-13T00:32:47.760Z,808.42
2017-06-13T00:32:52.271Z,808.37
2017-06-13T00:32:56.689Z,808.36
2017-06-13T00:33:01.001Z,808.38
2017-06-13T00:33:05.476Z,808.38
2017-06-13T00:33:09.901Z,808.34
2017-06-13T00:33:14.236Z,808.38
2017-06-13T00:33:18.537Z,808.37
2017-06-13T00:33:22.960Z,808.34
2017-06-13T00:33:27.383Z,808.32
2017-06-13T00:33:31.811Z,808.37
2017-06-13T00:33:36.234Z,808.38
2017-06-13T00:33:40.538Z,808.38
2017-06-13T00:33:44.960Z,808.41
2017-06-13T00:33:49.385Z,808.4
2017-06-13T00:33:53.808Z,808.38
2017-06-13T00:33:58.235Z,808.4
2017-06-13T00:34:02.908Z,808.41
2017-06-13T00:34:07.100Z,808.4
2017-06-13T00:34:11.526Z,808.43
2017-06-13T00:34:15.945Z,808.42
2017-06-13T00:34:20.250Z,808.41
2017-06-13T00:34:24.327Z,808.39
2017-06-13T00:34:28.647Z,808.43
2017-06-13T00:34:32.953Z,808.42
2017-06-13T00:34:37.379Z,808.44
2017-06-13T00:34:41.800Z,808.42
2017-06-13T00:34:46.226Z,808.45
2017-06-13T00:34:50.653Z,808.4
2017-06-13T00:34:55.078Z,808.42
2017-06-13T00:34:59.503Z,808.42
2017-06-13T00:35:03.808Z,808.45
2017-06-13T00:35:08.235Z,808.43
2017-06-13T00:35:12.662Z,808.45
2017-06-13T00:35:17.109Z,808.45
2017-06-13T00:35:21.294Z,808.44
2017-06-13T00:35:25.362Z,808.43
2017-06-13T00:35:29.785Z,808.46
2017-06-13T00:35:34.089Z,808.47
2017-06-13T00:35:38.548Z,808.48
2017-06-13T00:35:42.974Z,808.47
2017-06-13T00:35:47.278Z,808.46
2017-06-13T00:35:51.702Z,808.47
2017-06-13T00:35:56.123Z,808.47
2017-06-13T00:36:00.550Z,808.49
2017-06-13T00:36:04.980Z,808.49
2017-06-13T00:36:09.285Z,808.47
2017-06-13T00:36:13.475Z,808.48
2017-06-13T00:36:17.896Z,808.49
2017-06-13T00:36:22.319Z,808.52
2017-06-13T00:36:26.657Z,808.41
2017-06-13T00:36:31.082Z,808.51
2017-06-13T00:36:35.391Z,808.44
2017-06-13T00:36:39.814Z,808.51
2017-06-13T00:36:44.235Z,808.52
2017-06-13T00:36:48.552Z,808.51
2017-06-13T00:36:52.976Z,808.5
2017-06-13T00:36:57.402Z,808.49
2017-06-13T00:37:01.701Z,808.5
2017-06-13T00:37:06.003Z,808.5
2017-06-13T00:37:10.309Z,808.54
2017-06-13T00:37:14.748Z,808.51
2017-06-13T00:37:19.053Z,808.53
2017-06-13T00:37:23.478Z,808.52
2017-06-13T00:37:27.666Z,808.51
2017-06-13T00:37:32.087Z,808.53
2017-06-13T00:37:36.519Z,808.51
2017-06-13T00:37:40.973Z,808.52
2017-06-13T00:37:45.279Z,808.53
2017-06-13T00:37:49.699Z,808.53
2017-06-13T00:37:54.117Z,808.53
2017-06-13T00:37:58.538Z,808.53
2017-06-13T00:38:02.733Z,808.56
2017-06-13T00:38:07.040Z,808.51
2017-06-13T00:38:11.348Z,808.52
2017-06-13T00:38:15.779Z,808.53
2017-06-13T00:38:20.206Z,808.57
2017-06-13T00:38:24.560Z,808.52
2017-06-13T00:38:28.864Z,808.52
2017-06-13T00:38:33.284Z,808.56
2017-06-13T00:38:37.592Z,808.57
2017-06-13T00:38:42.018Z,808.56
2017-06-13T00:38:46.442Z,808.57
2017-06-13T00:38:50.640Z,808.55
2017-06-13T00:38:55.065Z,808.54
2017-06-13T00:38:59.488Z,808.55
2017-06-13T00:39:04.164Z,808.56
2017-06-13T00:39:08.585Z,808.57
2017-06-13T00:39:12.895Z,808.61
2017-06-13T00:39:17.218Z,808.57
2017-06-13T00:39:21.634Z,808.57
2017-06-13T00:39:25.837Z,808.57
2017-06-13T00:39:30.262Z,808.59
2017-06-13T00:39:34.569Z,808.59
2017-06-13T00:39:38.882Z,808.55
2017-06-13T00:39:43.303Z,808.6
2017-06-13T00:39:47.725Z,808.57
2017-06-13T00:39:52.143Z,808.57
2017-06-13T00:39:56.560Z,808.58
2017-06-13T00:40:00.984Z,808.58
2017-06-13T00:40:05.300Z,808.6
2017-06-13T00:40:09.730Z,808.6
2017-06-13T00:40:14.032Z,808.58
2017-06-13T00:40:18.453Z,808.6
2017-06-13T00:40:22.754Z,808.58
2017-06-13T00:40:27.074Z,808.58
2017-06-13T00:40:31.140Z,808.59
2017-06-13T00:40:35.560Z,808.6
2017-06-13T00:40:39.985Z,808.61
2017-06-13T00:40:44.292Z,808.57
2017-06-13T00:40:48.615Z,808.59
2017-06-13T00:40:53.048Z,808.58
2017-06-13T00:40:57.473Z,808.56
2017-06-13T00:41:01.892Z,808.6
2017-06-13T00:41:06.313Z,808.54
2017-06-13T00:41:10.739Z,808.55
2017-06-13T00:41:15.065Z,808.6
2017-06-13T00:41:19.504Z,808.56
2017-06-13T00:41:23.922Z,808.61
2017-06-13T00:41:27.989Z,808.58
2017-06-13T00:41:32.289Z,808.59
2017-06-13T00:41:36.610Z,808.6
2017-06-13T00:41:41.072Z,808.54
2017-06-13T00:41:45.490Z,808.59
2017-06-13T00:41:49.914Z,808.6
2017-06-13T00:41:54.214Z,808.62
2017-06-13T00:41:58.631Z,808.58
2017-06-13T00:42:03.109Z,808.56
2017-06-13T00:42:07.413Z,808.61
2017-06-13T00:42:11.830Z,808.62
2017-06-13T00:42:15.900Z,808.62
2017-06-13T00:42:20.201Z,808.63
2017-06-13T00:42:24.517Z,808.63
2017-06-13T00:42:28.962Z,808.63
2017-06-13T00:42:33.159Z,808.63
2017-06-13T00:42:37.467Z,808.62
2017-06-13T00:42:41.898Z,808.61
2017-06-13T00:42:46.317Z,808.65
2017-06-13T00:42:50.748Z,808.61
2017-06-13T00:42:55.198Z,808.63
2017-06-13T00:42:59.626Z,808.62
2017-06-13T00:43:04.203Z,808.64
2017-06-13T00:43:08.503Z,808.63
2017-06-13T00:43:12.935Z,808.63
2017-06-13T00:43:17.357Z,808.64
2017-06-13T00:43:21.781Z,808.66
2017-06-13T00:43:26.205Z,808.66
2017-06-13T00:43:30.630Z,808.65
2017-06-13T00:43:34.828Z,808.65
2017-06-13T00:43:39.135Z,808.65
2017-06-13T00:43:43.559Z,808.65
2017-06-13T00:43:47.867Z,808.67
2017-06-13T00:43:52.290Z,808.66
2017-06-13T00:43:56.598Z,808.65
2017-06-13T00:44:01.032Z,808.65
2017-06-13T00:44:05.252Z,808.63
2017-06-13T00:44:09.557Z,808.64
2017-06-13T00:44:13.983Z,808.64
2017-06-13T00:44:18.285Z,808.66
2017-06-13T00:44:22.606Z,808.66
2017-06-13T00:44:26.936Z,808.65
2017-06-13T00:44:31.365Z,808.64
2017-06-13T00:44:35.670Z,808.65
2017-06-13T00:44:39.978Z,808.66
2017-06-13T00:44:44.283Z,808.68
2017-06-13T00:44:48.752Z,808.65
2017-06-13T00:44:53.175Z,808.68
2017-06-13T00:44:57.360Z,808.68
2017-06-13T00:45:01.786Z,808.69
2017-06-13T00:45:06.206Z,808.69
2017-06-13T00:45:10.515Z,808.69
2017-06-13T00:45:14.970Z,808.71
2017-06-13T00:45:19.392Z,808.71
2017-06-13T00:45:23.812Z,808.72
2017-06-13T00:45:28.238Z,808.68
2017-06-13T00:45:32.663Z,808.67
2017-06-13T00:45:36.738Z,808.71
2017-06-13T00:45:41.040Z,808.72
2017-06-13T00:45:45.344Z,808.72
2017-06-13T00:45:49.765Z,808.75
2017-06-13T00:45:54.069Z,808.74
2017-06-13T00:45:58.388Z,808.74
2017-06-13T00:46:02.807Z,808.75
2017-06-13T00:46:07.117Z,808.75
2017-06-13T00:46:11.421Z,808.76
2017-06-13T00:46:15.848Z,808.76
2017-06-13T00:46:20.158Z,808.76
2017-06-13T00:46:24.466Z,808.78
2017-06-13T00:46:28.885Z,808.79
2017-06-13T00:46:33.306Z,808.8
2017-06-13T00:46:37.611Z,808.75
2017-06-13T00:46:41.923Z,808.77
2017-06-13T00:46:46.346Z,808.78
2017-06-13T00:46:50.773Z,808.77
2017-06-13T00:46:55.200Z,808.78
2017-06-13T00:46:59.626Z,808.8
2017-06-13T00:47:03.930Z,808.79
2017-06-13T00:47:08.357Z,808.78
2017-06-13T00:47:12.702Z,808.84
2017-06-13T00:47:17.127Z,808.78
2017-06-13T00:47:21.432Z,808.83
2017-06-13T00:47:25.856Z,808.8
2017-06-13T00:47:30.283Z,808.85
2017-06-13T00:47:34.474Z,808.81
2017-06-13T00:47:38.901Z,808.84
2017-06-13T00:47:43.331Z,808.85
2017-06-13T00:47:47.641Z,808.87
2017-06-13T00:47:52.061Z,808.86
2017-06-13T00:47:56.486Z,808.85
2017-06-13T00:48:00.796Z,808.86
2017-06-13T00:48:05.467Z,808.87
2017-06-13T00:48:09.886Z,808.88
2017-06-13T00:48:14.198Z,808.86
2017-06-13T00:48:18.626Z,808.89
2017-06-13T00:48:23.091Z,808.87
2017-06-13T00:48:27.393Z,808.9
2017-06-13T00:48:31.698Z,808.9
2017-06-13T00:48:36.120Z,808.91
2017-06-13T00:48:40.308Z,808.89
2017-06-13T00:48:44.622Z,808.92
2017-06-13T00:48:49.079Z,808.94
2017-06-13T00:48:53.502Z,808.97
2017-06-13T00:48:57.925Z,808.94
2017-06-13T00:49:02.649Z,808.93
2017-06-13T00:49:07.069Z,808.98
2017-06-13T00:49:11.500Z,808.98
2017-06-13T00:49:15.956Z,808.98
2017-06-13T00:49:20.261Z,809
2017-06-13T00:49:24.448Z,808.98
2017-06-13T00:49:28.884Z,809
2017-06-13T00:49:33.316Z,809.02
2017-06-13T00:49:37.622Z,809.01
2017-06-13T00:49:42.043Z,809.04
2017-06-13T00:49:46.349Z,808.99
2017-06-13T00:49:50.770Z,808.99
2017-06-13T00:49:55.189Z,809.01
2017-06-13T00:49:59.615Z,808.98
2017-06-13T00:50:03.928Z,809.08
2017-06-13T00:50:08.240Z,809.05
2017-06-13T00:50:12.662Z,809.07
2017-06-13T00:50:16.968Z,809.07
2017-06-13T00:50:21.286Z,809.09
2017-06-13T00:50:25.591Z,809.08
2017-06-13T00:50:30.021Z,809.08
2017-06-13T00:50:34.326Z,809.11
2017-06-13T00:50:38.632Z,809.12
2017-06-13T00:50:42.948Z,809.07
2017-06-13T00:50:47.381Z,809.1
2017-06-13T00:50:51.814Z,809.1
2017-06-13T00:50:56.233Z,809.14
2017-06-13T00:51:00.652Z,809.15
2017-06-13T00:51:05.073Z,809.13
2017-06-13T00:51:09.266Z,809.15
2017-06-13T00:51:13.698Z,809.11
2017-06-13T00:51:18.120Z,809.13
2017-06-13T00:51:22.427Z,809.14
2017-06-13T00:51:26.857Z,809.17
2017-06-13T00:51:31.288Z,809.08
2017-06-13T00:51:35.599Z,809.17
2017-06-13T00:51:39.671Z,809.18
2017-06-13T00:51:43.975Z,809.2
2017-06-13T00:51:48.397Z,809.22
2017-06-13T00:51:52.816Z,809.17
2017-06-13T00:51:57.239Z,809.21
2017-06-13T00:52:01.690Z,809.22
2017-06-13T00:52:05.990Z,809.2
2017-06-13T00:52:10.179Z,809.19
2017-06-13T00:52:14.605Z,809.19
2017-06-13T00:52:18.909Z,809.19
2017-06-13T00:52:23.365Z,809.19
2017-06-13T00:52:27.797Z,809.26
2017-06-13T00:52:32.107Z,809.28
2017-06-13T00:52:36.410Z,809.22
2017-06-13T00:52:40.595Z,809.25
2017-06-13T00:52:44.900Z,809.23
2017-06-13T00:52:49.323Z,809.32
2017-06-13T00:52:53.744Z,809.29
2017-06-13T00:52:58.164Z,809.26
2017-06-13T00:53:02.481Z,809.35
2017-06-13T00:53:06.791Z,809.32
2017-06-13T00:53:11.226Z,809.31
2017-06-13T00:53:15.651Z,809.33
2017-06-13T00:53:19.836Z,809.34
2017-06-13T00:53:24.143Z,809.32
2017-06-13T00:53:28.570Z,809.29
2017-06-13T00:53:32.883Z,809.29
2017-06-13T00:53:37.186Z,809.36
2017-06-13T00:53:41.371Z,809.38
2017-06-13T00:53:45.558Z,809.39
2017-06-13T00:53:49.983Z,809.41
2017-06-13T00:53:54.409Z,809.4
2017-06-13T00:53:58.725Z,809.39
2017-06-13T00:54:03.198Z,809.39
2017-06-13T00:54:07.505Z,809.39
2017-06-13T00:54:11.924Z,809.43
2017-06-13T00:54:16.355Z,809.45
2017-06-13T00:54:20.577Z,809.44
2017-06-13T00:54:25.014Z,809.43
2017-06-13T00:54:29.331Z,809.44
2017-06-13T00:54:33.636Z,809.47
2017-06-13T00:54:37.942Z,809.39
2017-06-13T00:54:42.371Z,809.46
2017-06-13T00:54:46.683Z,809.49